createdAt,value
2019-06-26T00:17:08.841Z,6.33
2019-06-26T00:37:18.336Z,7.19
2019-06-26T00:57:27.654Z,5.35
2019-06-26T01:17:37.069Z,5.71
2019-06-26T01:37:51.099Z,6.01
2019-06-26T01:57:52.784Z,5.68
2019-06-26T02:17:52.207Z,5.20
2019-06-26T02:38:01.571Z,5.91
2019-06-26T02:58:13.253Z,8.52
2019-06-26T03:18:12.645Z,10.47
2019-06-26T03:38:22.049Z,8.51
2019-06-26T03:58:33.783Z,6.20
2019-06-26T04:18:33.194Z,4.97
2019-06-26T04:38:42.629Z,4.72
2019-06-26T04:58:54.289Z,4.73
2019-06-26T05:18:58.263Z,4.48
2019-06-26T05:38:57.675Z,4.30
2019-06-26T05:59:07.091Z,3.99
2019-06-26T06:19:16.576Z,3.46
2019-06-26T06:39:28.215Z,2.85
2019-06-26T06:59:27.726Z,2.76
2019-06-26T07:19:37.078Z,4.20
2019-06-26T07:39:46.621Z,2.93
2019-06-26T07:59:55.933Z,3.39
2019-06-26T08:20:05.323Z,3.13
2019-06-26T08:40:14.771Z,2.86
2019-06-26T09:00:28.882Z,2.68
2019-06-26T09:20:28.303Z,2.76
2019-06-26T09:40:37.870Z,2.91
2019-06-26T10:00:47.462Z,2.79
2019-06-26T10:20:59.579Z,2.84
2019-06-26T10:40:59.247Z,3.18
2019-06-26T11:01:08.650Z,3.25
2019-06-26T11:21:20.441Z,3.33
2019-06-26T11:41:20.006Z,3.80
2019-06-26T12:01:29.450Z,3.43
2019-06-26T12:21:38.925Z,3.59
2019-06-26T12:41:48.325Z,4.19
2019-06-26T13:01:57.702Z,3.96
2019-06-26T13:22:09.673Z,4.12
2019-06-26T13:42:09.230Z,4.23
2019-06-26T14:02:19.937Z,4.31
2019-06-26T14:22:27.940Z,4.09
2019-06-26T14:42:37.700Z,4.76
2019-06-26T15:02:49.804Z,4.73
2019-06-26T15:22:49.326Z,4.95
2019-06-26T15:43:01.072Z,5.50
2019-06-26T16:03:01.412Z,5.60
2019-06-26T16:23:01.046Z,6.04
2019-06-26T16:43:10.598Z,7.63
2019-06-26T17:03:20.349Z,7.41
2019-06-26T17:23:29.874Z,8.32
2019-06-26T17:44:00.873Z,7.71
2019-06-26T18:23:57.069Z,18.41
2019-06-26T18:44:08.145Z,15.50
2019-06-26T19:04:09.859Z,14.45
2019-06-26T19:24:10.534Z,10.38
2019-06-26T19:44:18.212Z,12.40
2019-06-26T20:04:27.586Z,10.96
2019-06-26T20:24:44.096Z,11.01
2019-06-26T20:44:45.911Z,9.01
2019-06-26T21:04:55.425Z,7.74
2019-06-26T21:25:17.862Z,8.12
2019-06-26T21:45:08.333Z,8.20
2019-06-26T22:05:07.776Z,7.56
2019-06-26T22:25:17.220Z,7.04
2019-06-26T22:45:26.606Z,9.09
2019-06-26T23:05:38.318Z,8.06
2019-06-26T23:25:37.692Z,10.07
2019-06-26T23:45:47.030Z,8.38
